sensor_id;sensor_type;location;lat;lon;timestamp;P1;durP1;ratioP1;P2;durP2;ratioP2
5521;SDS011;2783;48.730;8.006;2023-07-29T00:00:41;1.92;;;0.90;;
5521;SDS011;2783;48.730;8.006;2023-07-29T00:03:07;3.03;;;0.90;;
5521;SDS011;2783;48.730;8.006;2023-07-29T00:05:33;1.80;;;0.77;;
5521;SDS011;2783;48.730;8.006;2023-07-29T00:07:58;1.80;;;1.10;;
5521;SDS011;2783;48.730;8.006;2023-07-29T00:10:24;4.13;;;1.45;;
5521;SDS011;2783;48.730;8.006;2023-07-29T00:12:50;3.95;;;1.20;;
5521;SDS011;2783;48.730;8.006;2023-07-29T00:15:16;3.38;;;1.20;;
5521;SDS011;2783;48.730;8.006;2023-07-29T00:17:42;2.00;;;1.10;;
5521;SDS011;2783;48.730;8.006;2023-07-29T00:20:07;2.45;;;0.73;;
5521;SDS011;2783;48.730;8.006;2023-07-29T00:22:33;2.38;;;1.00;;
5521;SDS011;2783;48.730;8.006;2023-07-29T00:24:58;2.38;;;1.10;;
5521;SDS011;2783;48.730;8.006;2023-07-29T00:27:24;1.70;;;0.98;;
5521;SDS011;2783;48.730;8.006;2023-07-29T00:29:50;4.75;;;1.05;;
5521;SDS011;2783;48.730;8.006;2023-07-29T00:32:15;3.08;;;1.20;;
5521;SDS011;2783;48.730;8.006;2023-07-29T00:34:40;1.42;;;0.95;;
5521;SDS011;2783;48.730;8.006;2023-07-29T00:37:06;2.28;;;1.00;;
5521;SDS011;2783;48.730;8.006;2023-07-29T00:39:32;2.53;;;1.23;;
5521;SDS011;2783;48.730;8.006;2023-07-29T00:41:58;1.77;;;1.02;;
5521;SDS011;2783;48.730;8.006;2023-07-29T00:44:23;1.38;;;0.80;;
5521;SDS011;2783;48.730;8.006;2023-07-29T00:46:50;3.05;;;1.33;;
5521;SDS011;2783;48.730;8.006;2023-07-29T00:49:17;2.22;;;1.15;;
5521;SDS011;2783;48.730;8.006;2023-07-29T00:51:43;2.83;;;1.38;;
5521;SDS011;2783;48.730;8.006;2023-07-29T00:54:08;4.57;;;1.30;;
5521;SDS011;2783;48.730;8.006;2023-07-29T00:56:34;1.98;;;0.90;;
5521;SDS011;2783;48.730;8.006;2023-07-29T00:59:01;1.83;;;0.95;;
5521;SDS011;2783;48.730;8.006;2023-07-29T01:01:30;3.72;;;1.42;;
5521;SDS011;2783;48.730;8.006;2023-07-29T01:03:56;3.50;;;1.08;;
5521;SDS011;2783;48.730;8.006;2023-07-29T01:09:03;1.77;;;1.00;;
5521;SDS011;2783;48.730;8.006;2023-07-29T01:11:47;2.92;;;1.60;;
5521;SDS011;2783;48.730;8.006;2023-07-29T01:14:34;1.95;;;1.10;;
5521;SDS011;2783;48.730;8.006;2023-07-29T01:17:07;6.38;;;1.30;;
5521;SDS011;2783;48.730;8.006;2023-07-29T01:22:35;2.88;;;1.00;;
5521;SDS011;2783;48.730;8.006;2023-07-29T01:25:03;1.92;;;1.20;;
5521;SDS011;2783;48.730;8.006;2023-07-29T01:27:29;2.28;;;1.00;;
5521;SDS011;2783;48.730;8.006;2023-07-29T01:29:55;2.25;;;1.40;;
5521;SDS011;2783;48.730;8.006;2023-07-29T01:35:07;2.17;;;1.35;;
5521;SDS011;2783;48.730;8.006;2023-07-29T01:37:48;2.80;;;1.10;;
5521;SDS011;2783;48.730;8.006;2023-07-29T01:40:16;2.13;;;1.52;;
5521;SDS011;2783;48.730;8.006;2023-07-29T01:42:42;3.40;;;1.27;;
5521;SDS011;2783;48.730;8.006;2023-07-29T01:45:10;3.72;;;1.42;;
5521;SDS011;2783;48.730;8.006;2023-07-29T01:47:36;2.35;;;1.27;;
5521;SDS011;2783;48.730;8.006;2023-07-29T01:50:03;2.35;;;1.13;;
5521;SDS011;2783;48.730;8.006;2023-07-29T01:52:29;2.28;;;1.20;;
5521;SDS011;2783;48.730;8.006;2023-07-29T01:54:54;1.85;;;1.10;;
5521;SDS011;2783;48.730;8.006;2023-07-29T01:57:20;2.53;;;1.30;;
5521;SDS011;2783;48.730;8.006;2023-07-29T01:59:45;1.80;;;1.23;;
5521;SDS011;2783;48.730;8.006;2023-07-29T02:02:10;2.00;;;1.10;;
5521;SDS011;2783;48.730;8.006;2023-07-29T02:04:36;2.33;;;1.17;;
5521;SDS011;2783;48.730;8.006;2023-07-29T02:07:02;3.28;;;1.20;;
5521;SDS011;2783;48.730;8.006;2023-07-29T02:09:27;4.50;;;1.38;;
5521;SDS011;2783;48.730;8.006;2023-07-29T02:11:53;2.60;;;1.58;;
5521;SDS011;2783;48.730;8.006;2023-07-29T02:14:18;3.05;;;1.58;;
5521;SDS011;2783;48.730;8.006;2023-07-29T02:16:43;1.67;;;1.17;;
5521;SDS011;2783;48.730;8.006;2023-07-29T02:19:09;2.15;;;1.20;;
5521;SDS011;2783;48.730;8.006;2023-07-29T02:21:34;2.40;;;1.23;;
5521;SDS011;2783;48.730;8.006;2023-07-29T02:24:00;2.55;;;1.30;;
5521;SDS011;2783;48.730;8.006;2023-07-29T02:26:25;3.05;;;1.50;;
5521;SDS011;2783;48.730;8.006;2023-07-29T02:28:51;2.58;;;1.40;;
5521;SDS011;2783;48.730;8.006;2023-07-29T02:31:22;2.33;;;1.40;;
5521;SDS011;2783;48.730;8.006;2023-07-29T02:33:49;1.98;;;0.90;;
5521;SDS011;2783;48.730;8.006;2023-07-29T02:36:15;2.85;;;1.27;;
5521;SDS011;2783;48.730;8.006;2023-07-29T02:38:41;3.03;;;1.40;;
5521;SDS011;2783;48.730;8.006;2023-07-29T02:41:10;3.63;;;1.83;;
5521;SDS011;2783;48.730;8.006;2023-07-29T02:43:37;2.15;;;1.20;;
5521;SDS011;2783;48.730;8.006;2023-07-29T02:46:04;2.25;;;1.23;;
5521;SDS011;2783;48.730;8.006;2023-07-29T02:48:29;3.08;;;1.40;;
5521;SDS011;2783;48.730;8.006;2023-07-29T02:50:55;2.17;;;1.45;;
5521;SDS011;2783;48.730;8.006;2023-07-29T02:53:22;3.47;;;1.27;;
5521;SDS011;2783;48.730;8.006;2023-07-29T02:55:47;4.45;;;1.30;;
5521;SDS011;2783;48.730;8.006;2023-07-29T02:58:13;2.28;;;1.23;;
5521;SDS011;2783;48.730;8.006;2023-07-29T03:00:39;3.63;;;1.20;;
5521;SDS011;2783;48.730;8.006;2023-07-29T03:03:07;1.95;;;0.95;;
5521;SDS011;2783;48.730;8.006;2023-07-29T03:05:33;3.00;;;1.10;;
5521;SDS011;2783;48.730;8.006;2023-07-29T03:07:58;2.60;;;1.10;;
5521;SDS011;2783;48.730;8.006;2023-07-29T03:10:24;2.85;;;0.90;;
5521;SDS011;2783;48.730;8.006;2023-07-29T03:12:50;5.47;;;1.05;;
5521;SDS011;2783;48.730;8.006;2023-07-29T03:15:16;4.20;;;1.20;;
5521;SDS011;2783;48.730;8.006;2023-07-29T03:17:41;4.60;;;1.30;;
5521;SDS011;2783;48.730;8.006;2023-07-29T03:20:07;3.58;;;1.40;;
5521;SDS011;2783;48.730;8.006;2023-07-29T03:22:33;6.75;;;1.85;;
5521;SDS011;2783;48.730;8.006;2023-07-29T03:24:58;2.80;;;1.27;;
5521;SDS011;2783;48.730;8.006;2023-07-29T03:27:23;5.30;;;1.73;;
5521;SDS011;2783;48.730;8.006;2023-07-29T03:29:49;5.97;;;1.40;;
5521;SDS011;2783;48.730;8.006;2023-07-29T03:32:14;3.78;;;1.13;;
5521;SDS011;2783;48.730;8.006;2023-07-29T03:34:40;3.15;;;1.48;;
5521;SDS011;2783;48.730;8.006;2023-07-29T03:37:05;2.83;;;1.65;;
5521;SDS011;2783;48.730;8.006;2023-07-29T03:39:31;3.00;;;1.40;;
5521;SDS011;2783;48.730;8.006;2023-07-29T03:41:57;3.13;;;1.65;;
5521;SDS011;2783;48.730;8.006;2023-07-29T03:44:23;4.57;;;2.10;;
5521;SDS011;2783;48.730;8.006;2023-07-29T03:46:48;5.57;;;2.90;;
5521;SDS011;2783;48.730;8.006;2023-07-29T03:49:14;2.97;;;1.90;;
5521;SDS011;2783;48.730;8.006;2023-07-29T03:51:39;3.42;;;1.60;;
5521;SDS011;2783;48.730;8.006;2023-07-29T03:54:05;8.80;;;1.85;;
5521;SDS011;2783;48.730;8.006;2023-07-29T03:56:31;4.25;;;1.73;;
5521;SDS011;2783;48.730;8.006;2023-07-29T03:59:03;5.55;;;2.03;;
5521;SDS011;2783;48.730;8.006;2023-07-29T04:01:30;3.03;;;1.48;;
5521;SDS011;2783;48.730;8.006;2023-07-29T04:03:56;5.18;;;1.48;;
5521;SDS011;2783;48.730;8.006;2023-07-29T04:06:21;4.47;;;1.80;;
5521;SDS011;2783;48.730;8.006;2023-07-29T04:08:47;3.95;;;1.63;;
5521;SDS011;2783;48.730;8.006;2023-07-29T04:11:13;6.53;;;2.05;;
5521;SDS011;2783;48.730;8.006;2023-07-29T04:13:39;8.38;;;2.20;;
5521;SDS011;2783;48.730;8.006;2023-07-29T04:16:04;2.85;;;1.50;;
5521;SDS011;2783;48.730;8.006;2023-07-29T04:18:30;2.63;;;1.55;;
5521;SDS011;2783;48.730;8.006;2023-07-29T04:20:55;3.55;;;1.48;;
5521;SDS011;2783;48.730;8.006;2023-07-29T04:23:20;3.65;;;1.77;;
5521;SDS011;2783;48.730;8.006;2023-07-29T04:25:46;6.18;;;2.03;;
5521;SDS011;2783;48.730;8.006;2023-07-29T04:28:11;5.50;;;2.38;;
5521;SDS011;2783;48.730;8.006;2023-07-29T04:30:37;3.78;;;1.75;;
5521;SDS011;2783;48.730;8.006;2023-07-29T04:33:02;4.45;;;2.50;;
5521;SDS011;2783;48.730;8.006;2023-07-29T04:35:28;5.47;;;1.60;;
5521;SDS011;2783;48.730;8.006;2023-07-29T04:37:53;6.00;;;1.85;;
5521;SDS011;2783;48.730;8.006;2023-07-29T04:40:18;3.72;;;1.85;;
5521;SDS011;2783;48.730;8.006;2023-07-29T04:42:44;5.35;;;1.30;;
5521;SDS011;2783;48.730;8.006;2023-07-29T04:45:09;3.83;;;1.48;;
5521;SDS011;2783;48.730;8.006;2023-07-29T04:47:35;4.00;;;1.40;;
5521;SDS011;2783;48.730;8.006;2023-07-29T04:50:00;6.13;;;1.75;;
5521;SDS011;2783;48.730;8.006;2023-07-29T04:52:26;4.30;;;1.63;;
5521;SDS011;2783;48.730;8.006;2023-07-29T04:54:51;2.67;;;1.55;;
5521;SDS011;2783;48.730;8.006;2023-07-29T04:57:17;4.85;;;1.92;;
5521;SDS011;2783;48.730;8.006;2023-07-29T04:59:42;4.25;;;1.48;;
5521;SDS011;2783;48.730;8.006;2023-07-29T05:02:07;3.38;;;1.65;;
5521;SDS011;2783;48.730;8.006;2023-07-29T05:04:33;4.10;;;1.70;;
5521;SDS011;2783;48.730;8.006;2023-07-29T05:06:58;3.67;;;1.73;;
5521;SDS011;2783;48.730;8.006;2023-07-29T05:09:24;3.10;;;1.50;;
5521;SDS011;2783;48.730;8.006;2023-07-29T05:11:49;2.95;;;1.50;;
5521;SDS011;2783;48.730;8.006;2023-07-29T05:14:15;5.10;;;1.60;;
5521;SDS011;2783;48.730;8.006;2023-07-29T05:16:41;3.47;;;1.60;;
5521;SDS011;2783;48.730;8.006;2023-07-29T05:19:07;3.55;;;1.80;;
5521;SDS011;2783;48.730;8.006;2023-07-29T05:21:33;5.28;;;1.90;;
5521;SDS011;2783;48.730;8.006;2023-07-29T05:23:58;7.47;;;3.88;;
5521;SDS011;2783;48.730;8.006;2023-07-29T05:26:24;10.95;;;4.60;;
5521;SDS011;2783;48.730;8.006;2023-07-29T05:28:49;19.67;;;13.70;;
5521;SDS011;2783;48.730;8.006;2023-07-29T05:31:15;10.60;;;6.32;;
5521;SDS011;2783;48.730;8.006;2023-07-29T05:33:40;8.32;;;5.15;;
5521;SDS011;2783;48.730;8.006;2023-07-29T05:36:05;4.72;;;3.05;;
5521;SDS011;2783;48.730;8.006;2023-07-29T05:38:31;5.53;;;2.10;;
5521;SDS011;2783;48.730;8.006;2023-07-29T05:40:56;2.78;;;1.67;;
5521;SDS011;2783;48.730;8.006;2023-07-29T05:43:23;3.72;;;2.08;;
5521;SDS011;2783;48.730;8.006;2023-07-29T05:45:49;3.40;;;1.70;;
5521;SDS011;2783;48.730;8.006;2023-07-29T05:48:15;6.03;;;2.20;;
5521;SDS011;2783;48.730;8.006;2023-07-29T05:50:41;3.55;;;2.10;;
5521;SDS011;2783;48.730;8.006;2023-07-29T05:53:07;6.25;;;2.30;;
5521;SDS011;2783;48.730;8.006;2023-07-29T05:55:32;4.13;;;2.00;;
5521;SDS011;2783;48.730;8.006;2023-07-29T05:57:58;3.45;;;1.83;;
5521;SDS011;2783;48.730;8.006;2023-07-29T06:00:23;4.63;;;2.55;;
5521;SDS011;2783;48.730;8.006;2023-07-29T06:02:48;7.10;;;2.10;;
5521;SDS011;2783;48.730;8.006;2023-07-29T06:05:14;4.68;;;2.35;;
5521;SDS011;2783;48.730;8.006;2023-07-29T06:07:39;4.13;;;2.25;;
5521;SDS011;2783;48.730;8.006;2023-07-29T06:10:09;6.85;;;2.03;;
5521;SDS011;2783;48.730;8.006;2023-07-29T06:12:37;4.55;;;2.38;;
5521;SDS011;2783;48.730;8.006;2023-07-29T06:15:02;5.95;;;2.72;;
5521;SDS011;2783;48.730;8.006;2023-07-29T06:17:28;5.90;;;2.55;;
5521;SDS011;2783;48.730;8.006;2023-07-29T06:19:54;5.10;;;2.63;;
5521;SDS011;2783;48.730;8.006;2023-07-29T06:22:19;5.40;;;2.55;;
5521;SDS011;2783;48.730;8.006;2023-07-29T06:24:44;4.32;;;2.45;;
5521;SDS011;2783;48.730;8.006;2023-07-29T06:27:10;5.22;;;2.10;;
5521;SDS011;2783;48.730;8.006;2023-07-29T06:29:35;4.60;;;2.35;;
5521;SDS011;2783;48.730;8.006;2023-07-29T06:32:01;5.25;;;2.40;;
5521;SDS011;2783;48.730;8.006;2023-07-29T06:34:26;5.47;;;2.55;;
5521;SDS011;2783;48.730;8.006;2023-07-29T06:36:51;3.58;;;2.00;;
5521;SDS011;2783;48.730;8.006;2023-07-29T06:39:17;4.50;;;1.92;;
5521;SDS011;2783;48.730;8.006;2023-07-29T06:41:42;5.50;;;1.90;;
5521;SDS011;2783;48.730;8.006;2023-07-29T06:44:07;3.70;;;2.00;;
5521;SDS011;2783;48.730;8.006;2023-07-29T06:46:33;3.03;;;1.60;;
5521;SDS011;2783;48.730;8.006;2023-07-29T06:48:58;6.38;;;3.55;;
5521;SDS011;2783;48.730;8.006;2023-07-29T06:51:24;5.20;;;2.05;;
5521;SDS011;2783;48.730;8.006;2023-07-29T06:53:49;3.65;;;1.95;;
5521;SDS011;2783;48.730;8.006;2023-07-29T06:56:14;3.20;;;2.03;;
5521;SDS011;2783;48.730;8.006;2023-07-29T06:58:40;6.32;;;2.85;;
5521;SDS011;2783;48.730;8.006;2023-07-29T07:01:05;4.30;;;2.00;;
5521;SDS011;2783;48.730;8.006;2023-07-29T07:03:31;4.20;;;1.85;;
5521;SDS011;2783;48.730;8.006;2023-07-29T07:05:56;3.38;;;1.92;;
5521;SDS011;2783;48.730;8.006;2023-07-29T07:08:22;4.75;;;2.17;;
5521;SDS011;2783;48.730;8.006;2023-07-29T07:10:47;5.25;;;2.53;;
5521;SDS011;2783;48.730;8.006;2023-07-29T07:13:13;3.35;;;1.67;;
5521;SDS011;2783;48.730;8.006;2023-07-29T07:15:38;3.45;;;1.40;;
5521;SDS011;2783;48.730;8.006;2023-07-29T07:18:04;2.75;;;1.50;;
5521;SDS011;2783;48.730;8.006;2023-07-29T07:20:29;5.28;;;1.90;;
5521;SDS011;2783;48.730;8.006;2023-07-29T07:22:54;2.38;;;1.30;;
5521;SDS011;2783;48.730;8.006;2023-07-29T07:25:20;3.38;;;1.52;;
5521;SDS011;2783;48.730;8.006;2023-07-29T07:27:46;7.05;;;2.22;;
5521;SDS011;2783;48.730;8.006;2023-07-29T07:30:11;3.72;;;2.20;;
5521;SDS011;2783;48.730;8.006;2023-07-29T07:32:37;2.50;;;1.30;;
5521;SDS011;2783;48.730;8.006;2023-07-29T07:35:03;4.13;;;1.50;;
5521;SDS011;2783;48.730;8.006;2023-07-29T07:37:29;3.92;;;1.63;;
5521;SDS011;2783;48.730;8.006;2023-07-29T07:39:54;3.03;;;1.17;;
5521;SDS011;2783;48.730;8.006;2023-07-29T07:42:20;3.13;;;1.48;;
5521;SDS011;2783;48.730;8.006;2023-07-29T07:44:45;5.20;;;2.25;;
5521;SDS011;2783;48.730;8.006;2023-07-29T07:47:10;3.15;;;1.58;;
5521;SDS011;2783;48.730;8.006;2023-07-29T07:49:36;6.20;;;2.03;;
5521;SDS011;2783;48.730;8.006;2023-07-29T07:52:01;2.03;;;1.10;;
5521;SDS011;2783;48.730;8.006;2023-07-29T07:54:27;3.58;;;1.27;;
5521;SDS011;2783;48.730;8.006;2023-07-29T07:56:52;3.97;;;2.58;;
5521;SDS011;2783;48.730;8.006;2023-07-29T07:59:17;3.22;;;1.63;;
5521;SDS011;2783;48.730;8.006;2023-07-29T08:01:43;2.28;;;0.90;;
5521;SDS011;2783;48.730;8.006;2023-07-29T08:04:08;2.78;;;1.27;;
5521;SDS011;2783;48.730;8.006;2023-07-29T08:06:34;1.52;;;0.95;;
5521;SDS011;2783;48.730;8.006;2023-07-29T08:09:00;2.53;;;0.90;;
5521;SDS011;2783;48.730;8.006;2023-07-29T08:11:26;1.88;;;0.80;;
5521;SDS011;2783;48.730;8.006;2023-07-29T08:13:51;2.08;;;1.00;;
5521;SDS011;2783;48.730;8.006;2023-07-29T08:16:17;1.42;;;0.80;;
5521;SDS011;2783;48.730;8.006;2023-07-29T08:18:42;2.17;;;0.93;;
5521;SDS011;2783;48.730;8.006;2023-07-29T08:21:08;2.47;;;1.10;;
5521;SDS011;2783;48.730;8.006;2023-07-29T08:23:34;4.22;;;1.00;;
5521;SDS011;2783;48.730;8.006;2023-07-29T08:26:01;1.58;;;0.85;;
5521;SDS011;2783;48.730;8.006;2023-07-29T08:30:56;1.98;;;0.90;;
5521;SDS011;2783;48.730;8.006;2023-07-29T08:33:22;2.25;;;1.20;;
5521;SDS011;2783;48.730;8.006;2023-07-29T08:35:47;2.42;;;1.05;;
5521;SDS011;2783;48.730;8.006;2023-07-29T08:38:13;3.45;;;1.30;;
5521;SDS011;2783;48.730;8.006;2023-07-29T08:40:41;2.33;;;1.10;;
5521;SDS011;2783;48.730;8.006;2023-07-29T08:43:16;1.77;;;1.00;;
5521;SDS011;2783;48.730;8.006;2023-07-29T08:45:45;4.07;;;1.02;;
5521;SDS011;2783;48.730;8.006;2023-07-29T08:48:11;3.00;;;1.70;;
5521;SDS011;2783;48.730;8.006;2023-07-29T08:50:41;5.68;;;2.15;;
5521;SDS011;2783;48.730;8.006;2023-07-29T08:53:07;3.33;;;1.20;;
5521;SDS011;2783;48.730;8.006;2023-07-29T08:55:33;2.40;;;0.93;;
5521;SDS011;2783;48.730;8.006;2023-07-29T08:57:59;9.55;;;1.25;;
5521;SDS011;2783;48.730;8.006;2023-07-29T09:00:25;3.85;;;1.17;;
5521;SDS011;2783;48.730;8.006;2023-07-29T09:02:51;6.03;;;1.55;;
5521;SDS011;2783;48.730;8.006;2023-07-29T09:05:16;1.98;;;0.80;;
5521;SDS011;2783;48.730;8.006;2023-07-29T09:07:42;1.90;;;0.85;;
5521;SDS011;2783;48.730;8.006;2023-07-29T09:10:10;0.80;;;0.47;;
5521;SDS011;2783;48.730;8.006;2023-07-29T09:12:36;1.85;;;0.55;;
5521;SDS011;2783;48.730;8.006;2023-07-29T09:15:01;1.05;;;0.60;;
5521;SDS011;2783;48.730;8.006;2023-07-29T09:17:27;0.68;;;0.43;;
5521;SDS011;2783;48.730;8.006;2023-07-29T09:19:56;0.70;;;0.30;;
5521;SDS011;2783;48.730;8.006;2023-07-29T09:22:22;1.23;;;0.63;;
5521;SDS011;2783;48.730;8.006;2023-07-29T09:24:47;1.92;;;0.60;;
5521;SDS011;2783;48.730;8.006;2023-07-29T09:27:26;2.13;;;0.52;;
5521;SDS011;2783;48.730;8.006;2023-07-29T09:29:52;1.58;;;0.40;;
5521;SDS011;2783;48.730;8.006;2023-07-29T09:32:22;3.05;;;0.45;;
5521;SDS011;2783;48.730;8.006;2023-07-29T09:34:49;1.65;;;0.40;;
5521;SDS011;2783;48.730;8.006;2023-07-29T09:37:15;0.80;;;0.47;;
5521;SDS011;2783;48.730;8.006;2023-07-29T09:39:47;7.32;;;0.85;;
5521;SDS011;2783;48.730;8.006;2023-07-29T09:42:20;0.88;;;0.60;;
5521;SDS011;2783;48.730;8.006;2023-07-29T09:44:50;4.45;;;1.55;;
5521;SDS011;2783;48.730;8.006;2023-07-29T09:47:23;2.30;;;0.40;;
5521;SDS011;2783;48.730;8.006;2023-07-29T09:49:50;3.50;;;0.50;;
5521;SDS011;2783;48.730;8.006;2023-07-29T09:52:17;1.33;;;0.43;;
5521;SDS011;2783;48.730;8.006;2023-07-29T09:54:43;1.50;;;0.60;;
5521;SDS011;2783;48.730;8.006;2023-07-29T09:57:10;0.65;;;0.38;;
5521;SDS011;2783;48.730;8.006;2023-07-29T09:59:37;0.47;;;0.30;;
5521;SDS011;2783;48.730;8.006;2023-07-29T10:02:02;0.60;;;0.40;;
5521;SDS011;2783;48.730;8.006;2023-07-29T10:04:29;16.90;;;2.30;;
5521;SDS011;2783;48.730;8.006;2023-07-29T10:06:55;6.93;;;1.42;;
5521;SDS011;2783;48.730;8.006;2023-07-29T10:09:22;10.60;;;1.55;;
5521;SDS011;2783;48.730;8.006;2023-07-29T10:11:48;2.53;;;0.50;;
5521;SDS011;2783;48.730;8.006;2023-07-29T10:14:15;0.77;;;0.60;;
5521;SDS011;2783;48.730;8.006;2023-07-29T10:16:42;0.85;;;0.38;;
5521;SDS011;2783;48.730;8.006;2023-07-29T10:19:10;1.33;;;0.60;;
5521;SDS011;2783;48.730;8.006;2023-07-29T10:21:38;1.08;;;0.65;;
5521;SDS011;2783;48.730;8.006;2023-07-29T10:24:06;1.45;;;0.60;;
5521;SDS011;2783;48.730;8.006;2023-07-29T10:26:34;2.28;;;0.65;;
5521;SDS011;2783;48.730;8.006;2023-07-29T10:29:04;1.60;;;0.50;;
5521;SDS011;2783;48.730;8.006;2023-07-29T10:31:33;1.73;;;0.50;;
5521;SDS011;2783;48.730;8.006;2023-07-29T10:34:00;0.65;;;0.50;;
5521;SDS011;2783;48.730;8.006;2023-07-29T10:36:26;6.40;;;0.70;;
5521;SDS011;2783;48.730;8.006;2023-07-29T10:38:53;1.58;;;0.50;;
5521;SDS011;2783;48.730;8.006;2023-07-29T10:41:18;1.55;;;0.50;;
5521;SDS011;2783;48.730;8.006;2023-07-29T10:43:44;2.03;;;0.65;;
5521;SDS011;2783;48.730;8.006;2023-07-29T10:46:16;0.80;;;0.45;;
5521;SDS011;2783;48.730;8.006;2023-07-29T10:48:57;1.63;;;0.80;;
5521;SDS011;2783;48.730;8.006;2023-07-29T10:51:36;1.85;;;0.80;;
5521;SDS011;2783;48.730;8.006;2023-07-29T10:56:30;1.30;;;0.63;;
5521;SDS011;2783;48.730;8.006;2023-07-29T10:58:58;4.45;;;0.57;;
5521;SDS011;2783;48.730;8.006;2023-07-29T11:01:57;1.33;;;0.40;;
5521;SDS011;2783;48.730;8.006;2023-07-29T11:04:24;2.63;;;0.95;;
5521;SDS011;2783;48.730;8.006;2023-07-29T11:07:03;1.27;;;0.40;;
5521;SDS011;2783;48.730;8.006;2023-07-29T11:15:17;0.65;;;0.43;;
5521;SDS011;2783;48.730;8.006;2023-07-29T11:20:18;3.00;;;0.60;;
5521;SDS011;2783;48.730;8.006;2023-07-29T11:22:45;0.90;;;0.60;;
5521;SDS011;2783;48.730;8.006;2023-07-29T11:25:11;1.23;;;0.80;;
5521;SDS011;2783;48.730;8.006;2023-07-29T11:27:38;1.63;;;0.80;;
5521;SDS011;2783;48.730;8.006;2023-07-29T11:30:06;1.42;;;0.70;;
5521;SDS011;2783;48.730;8.006;2023-07-29T11:32:33;1.75;;;0.68;;
5521;SDS011;2783;48.730;8.006;2023-07-29T11:35:06;1.55;;;0.70;;
5521;SDS011;2783;48.730;8.006;2023-07-29T11:37:36;1.38;;;0.60;;
5521;SDS011;2783;48.730;8.006;2023-07-29T11:40:03;1.80;;;0.70;;
5521;SDS011;2783;48.730;8.006;2023-07-29T11:42:33;2.42;;;0.90;;
5521;SDS011;2783;48.730;8.006;2023-07-29T11:44:59;2.10;;;0.80;;
5521;SDS011;2783;48.730;8.006;2023-07-29T11:47:26;1.58;;;0.57;;
5521;SDS011;2783;48.730;8.006;2023-07-29T11:49:51;2.00;;;0.75;;
5521;SDS011;2783;48.730;8.006;2023-07-29T11:52:17;2.05;;;1.00;;
5521;SDS011;2783;48.730;8.006;2023-07-29T11:54:44;1.05;;;0.65;;
5521;SDS011;2783;48.730;8.006;2023-07-29T11:57:13;1.67;;;0.70;;
5521;SDS011;2783;48.730;8.006;2023-07-29T11:59:40;1.45;;;0.80;;
5521;SDS011;2783;48.730;8.006;2023-07-29T12:02:11;2.08;;;0.60;;
5521;SDS011;2783;48.730;8.006;2023-07-29T12:04:47;3.60;;;0.95;;
5521;SDS011;2783;48.730;8.006;2023-07-29T12:07:13;2.40;;;1.00;;
5521;SDS011;2783;48.730;8.006;2023-07-29T12:09:41;2.67;;;0.90;;
5521;SDS011;2783;48.730;8.006;2023-07-29T12:12:07;1.58;;;0.70;;
5521;SDS011;2783;48.730;8.006;2023-07-29T12:14:33;1.88;;;0.80;;
5521;SDS011;2783;48.730;8.006;2023-07-29T12:17:03;1.63;;;0.80;;
5521;SDS011;2783;48.730;8.006;2023-07-29T12:19:33;1.50;;;0.80;;
5521;SDS011;2783;48.730;8.006;2023-07-29T12:22:00;2.40;;;1.17;;
5521;SDS011;2783;48.730;8.006;2023-07-29T12:24:27;1.20;;;0.68;;
5521;SDS011;2783;48.730;8.006;2023-07-29T12:26:54;2.55;;;1.20;;
5521;SDS011;2783;48.730;8.006;2023-07-29T12:29:19;2.60;;;1.20;;
5521;SDS011;2783;48.730;8.006;2023-07-29T12:31:45;1.63;;;0.77;;
5521;SDS011;2783;48.730;8.006;2023-07-29T12:34:20;1.73;;;0.60;;
5521;SDS011;2783;48.730;8.006;2023-07-29T12:36:50;1.75;;;0.77;;
5521;SDS011;2783;48.730;8.006;2023-07-29T12:39:17;3.60;;;0.82;;
5521;SDS011;2783;48.730;8.006;2023-07-29T12:41:50;1.88;;;0.70;;
5521;SDS011;2783;48.730;8.006;2023-07-29T12:44:17;1.27;;;0.80;;
5521;SDS011;2783;48.730;8.006;2023-07-29T12:46:42;1.77;;;0.80;;
5521;SDS011;2783;48.730;8.006;2023-07-29T12:49:08;2.10;;;0.90;;
5521;SDS011;2783;48.730;8.006;2023-07-29T12:51:34;1.63;;;0.93;;
5521;SDS011;2783;48.730;8.006;2023-07-29T12:54:00;1.20;;;0.65;;
5521;SDS011;2783;48.730;8.006;2023-07-29T12:56:26;1.67;;;0.80;;
5521;SDS011;2783;48.730;8.006;2023-07-29T12:58:52;1.30;;;0.65;;
5521;SDS011;2783;48.730;8.006;2023-07-29T13:01:17;2.13;;;1.00;;
5521;SDS011;2783;48.730;8.006;2023-07-29T13:03:47;4.13;;;0.82;;
5521;SDS011;2783;48.730;8.006;2023-07-29T13:06:13;7.80;;;1.00;;
5521;SDS011;2783;48.730;8.006;2023-07-29T13:08:39;2.42;;;1.10;;
5521;SDS011;2783;48.730;8.006;2023-07-29T13:11:04;7.68;;;2.60;;
5521;SDS011;2783;48.730;8.006;2023-07-29T13:13:30;2.13;;;1.05;;
5521;SDS011;2783;48.730;8.006;2023-07-29T13:15:56;2.60;;;1.00;;
5521;SDS011;2783;48.730;8.006;2023-07-29T13:18:22;1.35;;;0.75;;
5521;SDS011;2783;48.730;8.006;2023-07-29T13:20:48;1.55;;;0.80;;
5521;SDS011;2783;48.730;8.006;2023-07-29T13:23:13;1.85;;;0.80;;
5521;SDS011;2783;48.730;8.006;2023-07-29T13:25:40;3.70;;;0.85;;
5521;SDS011;2783;48.730;8.006;2023-07-29T13:28:06;2.17;;;0.70;;
5521;SDS011;2783;48.730;8.006;2023-07-29T13:30:32;2.55;;;0.82;;
5521;SDS011;2783;48.730;8.006;2023-07-29T13:32:58;1.58;;;0.90;;
5521;SDS011;2783;48.730;8.006;2023-07-29T13:35:23;1.50;;;0.80;;
5521;SDS011;2783;48.730;8.006;2023-07-29T13:37:49;2.33;;;0.90;;
5521;SDS011;2783;48.730;8.006;2023-07-29T13:40:14;1.85;;;0.80;;
5521;SDS011;2783;48.730;8.006;2023-07-29T13:42:39;2.40;;;1.13;;
5521;SDS011;2783;48.730;8.006;2023-07-29T13:45:05;4.93;;;1.52;;
5521;SDS011;2783;48.730;8.006;2023-07-29T13:47:31;4.53;;;1.02;;
5521;SDS011;2783;48.730;8.006;2023-07-29T13:49:56;4.63;;;0.95;;
5521;SDS011;2783;48.730;8.006;2023-07-29T13:52:22;1.70;;;0.85;;
5521;SDS011;2783;48.730;8.006;2023-07-29T13:54:47;5.07;;;1.02;;
5521;SDS011;2783;48.730;8.006;2023-07-29T13:57:13;5.60;;;1.25;;
5521;SDS011;2783;48.730;8.006;2023-07-29T13:59:38;3.75;;;1.52;;
5521;SDS011;2783;48.730;8.006;2023-07-29T14:02:07;2.58;;;0.90;;
5521;SDS011;2783;48.730;8.006;2023-07-29T14:04:32;3.28;;;0.90;;
5521;SDS011;2783;48.730;8.006;2023-07-29T14:06:58;5.40;;;1.33;;
5521;SDS011;2783;48.730;8.006;2023-07-29T14:09:24;1.75;;;0.90;;
5521;SDS011;2783;48.730;8.006;2023-07-29T14:11:50;4.38;;;1.40;;
5521;SDS011;2783;48.730;8.006;2023-07-29T14:14:15;2.15;;;1.00;;
5521;SDS011;2783;48.730;8.006;2023-07-29T14:16:41;2.30;;;1.10;;
5521;SDS011;2783;48.730;8.006;2023-07-29T14:19:06;2.85;;;1.00;;
5521;SDS011;2783;48.730;8.006;2023-07-29T14:21:32;3.10;;;1.20;;
5521;SDS011;2783;48.730;8.006;2023-07-29T14:23:57;1.75;;;0.90;;
5521;SDS011;2783;48.730;8.006;2023-07-29T14:26:22;3.35;;;1.45;;
5521;SDS011;2783;48.730;8.006;2023-07-29T14:28:48;6.10;;;1.20;;
5521;SDS011;2783;48.730;8.006;2023-07-29T14:31:15;2.00;;;0.85;;
5521;SDS011;2783;48.730;8.006;2023-07-29T14:33:41;2.38;;;1.02;;
5521;SDS011;2783;48.730;8.006;2023-07-29T14:36:07;4.35;;;1.30;;
5521;SDS011;2783;48.730;8.006;2023-07-29T14:38:33;2.53;;;0.80;;
5521;SDS011;2783;48.730;8.006;2023-07-29T14:40:58;1.92;;;0.90;;
5521;SDS011;2783;48.730;8.006;2023-07-29T14:43:23;1.98;;;0.90;;
5521;SDS011;2783;48.730;8.006;2023-07-29T14:45:49;2.97;;;1.00;;
5521;SDS011;2783;48.730;8.006;2023-07-29T14:48:14;3.40;;;1.00;;
5521;SDS011;2783;48.730;8.006;2023-07-29T14:50:40;2.25;;;1.13;;
5521;SDS011;2783;48.730;8.006;2023-07-29T14:53:06;2.38;;;1.10;;
5521;SDS011;2783;48.730;8.006;2023-07-29T14:55:31;1.80;;;1.00;;
5521;SDS011;2783;48.730;8.006;2023-07-29T14:57:57;2.33;;;0.95;;
5521;SDS011;2783;48.730;8.006;2023-07-29T15:00:22;2.53;;;1.20;;
5521;SDS011;2783;48.730;8.006;2023-07-29T15:02:48;6.43;;;1.33;;
5521;SDS011;2783;48.730;8.006;2023-07-29T15:05:13;2.67;;;1.05;;
5521;SDS011;2783;48.730;8.006;2023-07-29T15:07:39;2.25;;;1.00;;
5521;SDS011;2783;48.730;8.006;2023-07-29T15:10:05;3.38;;;1.23;;
5521;SDS011;2783;48.730;8.006;2023-07-29T15:12:30;1.70;;;0.88;;
5521;SDS011;2783;48.730;8.006;2023-07-29T15:14:56;3.28;;;1.00;;
5521;SDS011;2783;48.730;8.006;2023-07-29T15:17:21;2.35;;;1.48;;
5521;SDS011;2783;48.730;8.006;2023-07-29T15:19:46;4.38;;;1.83;;
5521;SDS011;2783;48.730;8.006;2023-07-29T15:22:15;2.45;;;1.00;;
5521;SDS011;2783;48.730;8.006;2023-07-29T15:24:41;2.75;;;1.10;;
5521;SDS011;2783;48.730;8.006;2023-07-29T15:27:08;2.53;;;1.05;;
5521;SDS011;2783;48.730;8.006;2023-07-29T15:29:34;2.63;;;1.20;;
5521;SDS011;2783;48.730;8.006;2023-07-29T15:31:59;1.90;;;1.08;;